East Foxe: Past 24 Hour Conditions

 

Kuujjuarapik Airport

02:00 AM EDT 23 March 2019
Disclaimer

This table is a summary of hourly weather conditions for the past 24 hours.
Please note that these observations might not always be representative of weather conditions over their associated marine area.

Date / Time
(EDT)
Wind(knots) Conditions Visibility(km) Pressure(kPa) Air tempC) Relative humidity(%) Dew pointC) Wind Chill
23 March 2019
2:00 SSE 7 Clear 16 101.8 -21 85 -22 -29
1:00 SE 9 Clear 16 101.8 -21 85 -23 -31
0:00 SE 7 Clear 16 101.9 -21 85 -23 -30
22 March 2019
23:00 SSE 5 Clear 16 102.1 -20 86 -22 -27
22:00 SE 5 Clear 16 102.2 -20 86 -22 -27
21:00 SE 3 Clear 16 102.1 -20 87 -22 -24
20:00 S 3 Clear 16 102.2 -18 85 -20 -22
19:00 SW 3 Sunny 16 102.2 -17 83 -19 -21
18:00 W 3 Mainly Sunny 16 102.3 -16 81 -19 -20
17:00 W 4 Partly Cloudy 16 102.3 -16 81 -19 -22
16:00 WNW 5 Mainly Sunny 16 102.3 -16 80 -19 -22
15:00 NW 4 Partly Cloudy 16 102.3 -16 81 -19 -22
14:00 NW 6 Mainly Sunny 16 102.3 -17 81 -19 -23
13:00 NW 5 Cloudy 16 102.3 -17 82 -19 -23
12:00 NW 8 Mist 6 102.2 -17 84 -19 -25
11:00 NNW 5 Cloudy 13 102.2 -16 85 -18 -22
10:00 NW 10 Light Snow 16 102.1 -16 86 -18 -25
9:00 NW 11 Light Snow 16 102.0 -16 87 -18 -26
8:00 calm Light Snow 16 101.9 -19 86 -21 *
7:00 W 2 Cloudy 16 101.7 -21 87 -23 -25
6:00 ESE 2 Clear 16 101.6 -24 86 -26 -28
5:00 WNW 3 Clear 16 101.5 -23 86 -25 -28
4:00 calm Clear 16 101.4 -22 85 -24 *
3:00 NW 3 Mainly Clear 16 101.3 -21 87 -22 -25
2:00 NNW 2 Clear 16 101.2 -19 87 -20 -22

Zoom-in to make a selection

Map of Hudson - Hudson Bay marine weather areas Arviat Airport Baker Lake Airport Chesterfield Inlet Airport Coral Harbour Airport Rankin Inlet Airport Sanikiluaq Airport Whale Cove Airport Cape Dorset Airport Iqaluit Airport Resolution Island Wager Bay Kimmirut Airport Churchill Airport Fort Severn Airport Peawanuck Airport Moosonee Airport Eastmain Airport La Grande Rivière Airport Waskaganish Airport Wemindji Airport Akulivik Airport Inukjuak Airport Ivujivik Airport Kuujjuarapik Airport Puvirnituq Airport Umiujaq Airport Aupaluk Airport Kangiqsujuaq Airport Kangirsuk Airport Kangiqsualujjuaq Airport Kuujjuaq Airport Quaqtaq Airport Salluit Airport Tasiujaq Airport Cape Kakkiviak
Legend:
buoy Buoy
land station Land Station

Hudson - Hudson Bay Area

Another Region

What we are doing

Date modified: